Time,TemperatureF,DewpointF,PressureIn,WindDirection,WindDirectionDegrees,WindSpeedMPH,WindSpeedGustMPH,Humidity,HourlyPrecipIn,Conditions,Clouds,dailyrainin,SolarRadiationWatts/m^2,SoftwareType,DateUTC
2013-05-24 00:10:00,60.3,60.0,29.66,South,190,0.0,8.0,98,0.04,,,0.02,0,weatherlink.com 1.10,2013-05-24 04:10:00,
2013-05-24 00:25:00,60.2,60.0,29.65,SSW,201,7.0,10.0,98,0.06,,,0.04,0,weatherlink.com 1.10,2013-05-24 04:25:00,
2013-05-24 00:40:00,60.2,60.0,29.65,South,181,0.0,8.0,98,0.09,,,0.07,0,weatherlink.com 1.10,2013-05-24 04:40:00,
2013-05-24 00:55:00,60.2,60.0,29.64,SSW,198,0.0,4.0,98,0.09,,,0.08,0,weatherlink.com 1.10,2013-05-24 04:55:00,
2013-05-24 01:10:00,59.8,59.0,29.64,SSW,196,0.0,5.0,98,0.09,,,0.11,0,weatherlink.com 1.10,2013-05-24 05:10:00,
2013-05-24 01:25:00,59.6,59.0,29.64,South,173,0.0,6.0,98,0.10,,,0.14,0,weatherlink.com 1.10,2013-05-24 05:25:00,
2013-05-24 01:40:00,59.7,59.0,29.63,South,173,0.0,1.0,98,0.08,,,0.15,0,weatherlink.com 1.10,2013-05-24 05:40:00,
2013-05-24 01:55:00,59.5,59.0,29.63,South,180,1.0,5.0,98,0.07,,,0.15,0,weatherlink.com 1.10,2013-05-24 05:55:00,
2013-05-24 02:10:00,58.9,58.0,29.62,South,180,0.0,4.0,97,0.05,,,0.16,0,weatherlink.com 1.10,2013-05-24 06:10:00,
2013-05-24 02:25:00,59.0,58.0,29.61,South,180,0.0,4.0,97,0.05,,,0.19,0,weatherlink.com 1.10,2013-05-24 06:25:00,
2013-05-24 02:40:00,59.0,58.0,29.61,South,180,0.0,1.0,97,0.10,,,0.25,0,weatherlink.com 1.10,2013-05-24 06:40:00,
2013-05-24 02:55:00,58.7,58.0,29.61,South,180,0.0,1.0,97,0.30,,,0.45,0,weatherlink.com 1.10,2013-05-24 06:55:00,
2013-05-24 03:10:00,58.6,58.0,29.60,South,180,0.0,4.0,97,0.30,,,0.46,0,weatherlink.com 1.10,2013-05-24 07:10:00,
2013-05-24 03:25:00,58.4,58.0,29.60,South,180,0.0,1.0,97,0.26,,,0.46,0,weatherlink.com 1.10,2013-05-24 07:25:00,
2013-05-24 03:40:00,58.2,57.0,29.59,South,180,0.0,0.0,97,0.20,,,0.46,0,weatherlink.com 1.10,2013-05-24 07:40:00,
2013-05-24 03:55:00,58.1,57.0,29.59,South,180,0.0,2.0,97,0.01,,,0.46,0,weatherlink.com 1.10,2013-05-24 07:55:00,
2013-05-24 04:10:00,57.8,57.0,29.59,South,180,0.0,2.0,97,0.01,,,0.47,0,weatherlink.com 1.10,2013-05-24 08:10:00,
2013-05-24 04:26:00,57.7,57.0,29.59,South,180,0.0,1.0,97,0.01,,,0.47,0,weatherlink.com 1.10,2013-05-24 08:26:00,
2013-05-24 04:41:00,57.7,57.0,29.57,South,180,0.0,0.0,97,0.01,,,0.47,0,weatherlink.com 1.10,2013-05-24 08:41:00,
2013-05-24 04:56:00,57.6,57.0,29.57,South,180,0.0,0.0,97,0.02,,,0.48,0,weatherlink.com 1.10,2013-05-24 08:56:00,
2013-05-24 05:11:00,57.6,57.0,29.57,South,180,0.0,2.0,97,0.02,,,0.49,0,weatherlink.com 1.10,2013-05-24 09:11:00,
2013-05-24 05:26:00,57.6,57.0,29.57,South,180,0.0,0.0,97,0.02,,,0.49,0,weatherlink.com 1.10,2013-05-24 09:26:00,
2013-05-24 05:41:00,57.5,57.0,29.58,South,180,0.0,0.0,97,0.02,,,0.49,5,weatherlink.com 1.10,2013-05-24 09:41:00,
2013-05-24 05:56:00,57.4,57.0,29.58,South,180,0.0,0.0,97,0.01,,,0.49,12,weatherlink.com 1.10,2013-05-24 09:56:00,
2013-05-24 06:11:00,57.5,57.0,29.59,South,180,4.0,4.0,97,0.00,,,0.49,11,weatherlink.com 1.10,2013-05-24 10:11:00,
2013-05-24 06:25:00,57.9,57.0,29.58,SSW,205,0.0,8.0,97,0.00,,,0.49,42,weatherlink.com 1.10,2013-05-24 10:25:00,
2013-05-24 06:41:00,58.2,57.0,29.59,SSW,203,0.0,4.0,97,0.00,,,0.49,70,weatherlink.com 1.10,2013-05-24 10:41:00,
2013-05-24 06:55:00,58.4,57.0,29.60,West,276,0.0,6.0,96,0.00,,,0.49,56,weatherlink.com 1.10,2013-05-24 10:55:00,
2013-05-24 07:11:00,58.3,57.0,29.59,WSW,238,1.0,10.0,95,0.00,,,0.49,88,weatherlink.com 1.10,2013-05-24 11:11:00,
2013-05-24 07:26:00,58.3,57.0,29.60,North,355,0.0,5.0,94,0.00,,,0.49,84,weatherlink.com 1.10,2013-05-24 11:26:00,
2013-05-24 07:41:00,58.2,56.0,29.61,SSW,209,4.0,9.0,93,0.00,,,0.49,100,weatherlink.com 1.10,2013-05-24 11:41:00,
2013-05-24 07:56:00,58.1,56.0,29.61,SSE,162,4.0,6.0,93,0.00,,,0.49,56,weatherlink.com 1.10,2013-05-24 11:56:00,
2013-05-24 08:11:00,57.9,56.0,29.61,NW,323,6.0,8.0,93,0.00,,,0.49,47,weatherlink.com 1.10,2013-05-24 12:11:00,
2013-05-24 08:26:00,57.3,56.0,29.62,NW,311,2.0,15.0,94,0.00,,,0.49,97,weatherlink.com 1.10,2013-05-24 12:26:00,
2013-05-24 08:42:00,56.8,55.0,29.62,SW,232,0.0,6.0,94,0.00,,,0.49,135,weatherlink.com 1.10,2013-05-24 12:42:00,
2013-05-24 08:57:00,55.3,54.0,29.63,SSE,148,0.0,7.0,94,0.00,,,0.49,93,weatherlink.com 1.10,2013-05-24 12:57:00,
2013-05-24 09:12:00,53.6,51.0,29.64,WSW,240,0.0,7.0,92,0.00,,,0.49,109,weatherlink.com 1.10,2013-05-24 13:12:00,
2013-05-24 09:27:00,51.9,50.0,29.64,WNW,284,2.0,9.0,92,0.00,,,0.49,172,weatherlink.com 1.10,2013-05-24 13:27:00,
2013-05-24 09:42:00,52.3,50.0,29.64,WNW,292,1.0,4.0,93,0.00,,,0.49,146,weatherlink.com 1.10,2013-05-24 13:42:00,
2013-05-24 09:57:00,52.4,50.0,29.64,NW,318,3.0,7.0,92,0.00,,,0.49,311,weatherlink.com 1.10,2013-05-24 13:57:00,
2013-05-24 10:13:00,52.2,50.0,29.65,NNW,347,9.0,9.0,92,0.00,,,0.49,318,weatherlink.com 1.10,2013-05-24 14:13:00,
2013-05-24 10:28:00,52.4,50.0,29.65,NW,311,2.0,8.0,91,0.00,,,0.49,288,weatherlink.com 1.10,2013-05-24 14:28:00,
2013-05-24 10:43:00,54.2,51.0,29.65,North,360,0.0,9.0,89,0.00,,,0.49,369,weatherlink.com 1.10,2013-05-24 14:43:00,
2013-05-24 10:58:00,53.4,50.0,29.68,ENE,78,2.0,11.0,88,0.00,,,0.49,185,weatherlink.com 1.10,2013-05-24 14:58:00,
2013-05-24 11:13:00,52.0,49.0,29.68,NE,54,1.0,9.0,89,0.00,,,0.49,162,weatherlink.com 1.10,2013-05-24 15:13:00,
2013-05-24 11:28:00,51.5,49.0,29.68,North,351,5.0,10.0,91,0.00,,,0.49,520,weatherlink.com 1.10,2013-05-24 15:28:00,
2013-05-24 11:44:00,51.0,48.0,29.68,North,355,4.0,13.0,90,0.00,,,0.49,439,weatherlink.com 1.10,2013-05-24 15:44:00,
2013-05-24 11:59:00,51.1,49.0,29.68,NNW,327,9.0,14.0,91,0.00,,,0.49,512,weatherlink.com 1.10,2013-05-24 15:59:00,
2013-05-24 12:14:00,50.7,47.0,29.68,NE,38,8.0,14.0,87,0.00,,,0.49,478,weatherlink.com 1.10,2013-05-24 16:14:00,
2013-05-24 12:29:00,49.8,46.0,29.69,NW,314,6.0,18.0,88,0.00,,,0.49,248,weatherlink.com 1.10,2013-05-24 16:29:00,
2013-05-24 12:44:00,49.0,46.0,29.70,NE,40,9.0,14.0,89,0.00,,,0.49,185,weatherlink.com 1.10,2013-05-24 16:44:00,
2013-05-24 12:59:00,47.8,45.0,29.71,NW,319,8.0,14.0,90,0.00,,,0.49,128,weatherlink.com 1.10,2013-05-24 16:59:00,
2013-05-24 13:16:00,46.8,44.0,29.71,NW,311,15.0,18.0,91,0.00,,,0.49,120,weatherlink.com 1.10,2013-05-24 17:16:00,
2013-05-24 13:31:00,46.4,44.0,29.72,WNW,284,0.0,16.0,92,0.00,,,0.49,125,weatherlink.com 1.10,2013-05-24 17:31:00,
2013-05-24 13:46:00,45.9,44.0,29.72,NNW,327,4.0,18.0,92,0.00,,,0.49,120,weatherlink.com 1.10,2013-05-24 17:46:00,
2013-05-24 14:01:00,45.0,43.0,29.73,NW,313,8.0,14.0,92,0.00,,,0.49,97,weatherlink.com 1.10,2013-05-24 18:01:00,
2013-05-24 14:16:00,44.9,43.0,29.72,NNW,327,4.0,14.0,93,0.00,,,0.49,163,weatherlink.com 1.10,2013-05-24 18:16:00,
2013-05-24 14:31:00,44.9,43.0,29.72,WNW,300,10.0,19.0,92,0.00,,,0.49,169,weatherlink.com 1.10,2013-05-24 18:31:00,
2013-05-24 14:46:00,44.9,43.0,29.73,NW,307,9.0,16.0,92,0.00,,,0.49,188,weatherlink.com 1.10,2013-05-24 18:46:00,
2013-05-24 15:02:00,44.6,42.0,29.73,NW,319,4.0,20.0,91,0.00,,,0.49,104,weatherlink.com 1.10,2013-05-24 19:02:00,
2013-05-24 15:16:00,44.9,43.0,29.73,WNW,293,7.0,16.0,91,0.00,,,0.49,134,weatherlink.com 1.10,2013-05-24 19:16:00,
2013-05-24 15:31:00,44.1,42.0,29.72,WNW,302,13.0,19.0,91,0.00,,,0.49,144,weatherlink.com 1.10,2013-05-24 19:31:00,
2013-05-24 15:47:00,42.5,40.0,29.73,WNW,294,10.0,24.0,92,0.00,,,0.49,77,weatherlink.com 1.10,2013-05-24 19:47:00,
2013-05-24 16:02:00,41.9,40.0,29.74,NNW,342,10.0,21.0,93,0.00,,,0.49,93,weatherlink.com 1.10,2013-05-24 20:02:00,
2013-05-24 16:17:00,41.6,40.0,29.73,WNW,303,8.0,15.0,94,0.00,,,0.49,107,weatherlink.com 1.10,2013-05-24 20:17:00,
2013-05-24 16:32:00,41.5,40.0,29.73,WNW,288,6.0,23.0,93,0.00,,,0.49,179,weatherlink.com 1.10,2013-05-24 20:32:00,
2013-05-24 17:02:00,40.9,39.0,29.73,NW,308,7.0,24.0,94,0.00,,,0.49,113,weatherlink.com 1.10,2013-05-24 21:02:00,
2013-05-24 17:17:00,40.6,39.0,29.73,NW,315,4.0,21.0,94,0.00,,,0.49,63,weatherlink.com 1.10,2013-05-24 21:17:00,
2013-05-24 17:33:00,40.5,39.0,29.74,WNW,295,5.0,22.0,94,0.00,,,0.49,63,weatherlink.com 1.10,2013-05-24 21:33:00,
2013-05-24 17:48:00,40.6,39.0,29.74,WNW,303,14.0,24.0,94,0.00,,,0.49,76,weatherlink.com 1.10,2013-05-24 21:48:00,
2013-05-24 18:03:00,40.7,39.0,29.75,WNW,290,8.0,25.0,93,0.00,,,0.49,62,weatherlink.com 1.10,2013-05-24 22:03:00,
2013-05-24 18:18:00,40.6,39.0,29.75,SSW,200,8.0,22.0,92,0.00,,,0.49,46,weatherlink.com 1.10,2013-05-24 22:18:00,
2013-05-24 18:33:00,40.2,38.0,29.76,West,263,6.0,30.0,92,0.00,,,0.49,35,weatherlink.com 1.10,2013-05-24 22:33:00,
2013-05-24 18:49:00,39.9,38.0,29.76,NNW,340,11.0,25.0,93,0.00,,,0.49,23,weatherlink.com 1.10,2013-05-24 22:49:00,
2013-05-24 19:03:00,39.8,38.0,29.76,NNE,26,4.0,23.0,93,0.00,,,0.49,23,weatherlink.com 1.10,2013-05-24 23:03:00,
2013-05-24 19:19:00,39.7,38.0,29.77,WNW,299,0.0,25.0,93,0.00,,,0.49,18,weatherlink.com 1.10,2013-05-24 23:19:00,
2013-05-24 19:34:00,39.3,38.0,29.78,North,350,2.0,22.0,94,0.04,,,0.53,0,weatherlink.com 1.10,2013-05-24 23:34:00,
2013-05-24 19:49:00,39.1,38.0,29.79,WNW,300,6.0,24.0,94,0.07,,,0.56,0,weatherlink.com 1.10,2013-05-24 23:49:00,
2013-05-24 20:04:00,38.9,38.0,29.77,NW,314,8.0,21.0,95,0.10,,,0.59,0,weatherlink.com 1.10,2013-05-25 00:04:00,
2013-05-24 20:19:00,38.8,37.0,29.78,WNW,298,12.0,26.0,94,0.12,,,0.62,0,weatherlink.com 1.10,2013-05-25 00:19:00,
2013-05-24 20:34:00,38.8,37.0,29.78,WNW,285,11.0,22.0,94,0.10,,,0.63,0,weatherlink.com 1.10,2013-05-25 00:34:00,
2013-05-24 20:49:00,38.8,37.0,29.78,West,277,6.0,26.0,94,0.09,,,0.65,0,weatherlink.com 1.10,2013-05-25 00:49:00,
2013-05-24 21:04:00,38.9,37.0,29.79,NW,306,13.0,20.0,94,0.07,,,0.66,0,weatherlink.com 1.10,2013-05-25 01:04:00,
2013-05-24 21:19:00,38.9,37.0,29.80,NW,315,6.0,21.0,94,0.04,,,0.66,0,weatherlink.com 1.10,2013-05-25 01:19:00,
2013-05-24 21:34:00,38.9,37.0,29.80,NNW,341,13.0,30.0,94,0.02,,,0.66,0,weatherlink.com 1.10,2013-05-25 01:34:00,
2013-05-24 21:49:00,38.8,37.0,29.80,NNW,339,11.0,27.0,94,0.02,,,0.67,0,weatherlink.com 1.10,2013-05-25 01:49:00,
2013-05-24 22:05:00,38.8,37.0,29.80,North,9,7.0,21.0,94,0.01,,,0.67,0,weatherlink.com 1.10,2013-05-25 02:05:00,
2013-05-24 22:20:00,39.0,38.0,29.81,SW,215,10.0,26.0,94,0.01,,,0.67,0,weatherlink.com 1.10,2013-05-25 02:20:00,
2013-05-24 22:35:00,38.9,37.0,29.80,NW,316,8.0,24.0,94,0.01,,,0.67,0,weatherlink.com 1.10,2013-05-25 02:35:00,
2013-05-24 22:50:00,38.9,37.0,29.81,NNW,342,10.0,20.0,94,0.00,,,0.67,0,weatherlink.com 1.10,2013-05-25 02:50:00,
2013-05-24 23:05:00,38.9,37.0,29.83,WNW,294,10.0,16.0,94,0.00,,,0.67,0,weatherlink.com 1.10,2013-05-25 03:05:00,
2013-05-24 23:20:00,38.7,37.0,29.82,WNW,298,11.0,22.0,94,0.05,,,0.72,0,weatherlink.com 1.10,2013-05-25 03:20:00,
2013-05-24 23:35:00,38.4,37.0,29.81,WSW,257,12.0,23.0,94,0.06,,,0.73,0,weatherlink.com 1.10,2013-05-25 03:35:00,
2013-05-24 23:50:00,38.2,37.0,29.80,NNW,329,11.0,27.0,94,0.07,,,0.74,0,weatherlink.com 1.10,2013-05-25 03:50:00,